Time;durP1;ratioP1;P1;durP2;ratioP2;P2;SDS_P1;SDS_P2;PMS_P1;PMS_P2;Temp;Humidity;BMP_temperature;BMP_pressure;BME280_temperature;BME280_humidity;BME280_pressure;Samples;Min_cycle;Max_cycle;Signal;HPM_P1;HPM_P2
2022/01/01 00:01:33;;;;;;;5.68;5.37;;;;;;;12.27;98.54;101897.38;4371234;32;20057;-73
2022/01/01 00:03:58;;;;;;;4.57;4.37;;;;;;;12.38;98.48;101919.69;4371862;32;20622;-74
2022/01/01 00:06:23;;;;;;;6.15;5.85;;;;;;;12.25;97.90;101902.69;4372712;32;20861;-75
2022/01/01 00:08:49;;;;;;;4.80;4.60;;;;;;;12.36;98.27;101921.53;4370570;32;20073;-73
2022/01/01 00:11:14;;;;;;;6.05;5.75;;;;;;;12.40;98.23;101924.03;4369222;32;20077;-74
2022/01/01 00:13:40;;;;;;;4.55;4.35;;;;;;;11.45;98.05;101769.00;4369352;32;20159;-74
2022/01/01 00:16:09;;;;;;;4.50;4.30;;;;;;;12.38;98.22;101924.09;4371130;32;20614;-73
2022/01/01 00:18:38;;;;;;;4.40;4.20;;;;;;;12.41;97.88;101926.62;4363145;32;20169;-74
2022/01/01 00:21:04;;;;;;;4.32;4.12;;;;;;;12.32;98.09;101919.09;4374588;32;20211;-75
2022/01/01 00:23:29;;;;;;;5.00;4.78;;;;;;;12.35;98.58;101929.50;4369000;32;20175;-76
2022/01/01 00:25:54;;;;;;;4.40;4.20;;;;;;;12.25;98.81;101907.94;4367772;32;20606;-75
2022/01/01 00:28:20;;;;;;;6.15;5.85;;;;;;;12.26;98.92;101924.59;4372346;32;20157;-76
2022/01/01 00:30:45;;;;;;;4.40;4.20;;;;;;;12.32;99.52;101934.87;4370733;32;20873;-74
2022/01/01 00:33:11;;;;;;;5.60;5.32;;;;;;;12.29;100.00;101948.16;4374236;32;22385;-75
2022/01/01 00:35:36;;;;;;;5.28;4.97;;;;;;;12.30;99.90;101947.25;4355405;32;20069;-75
2022/01/01 00:38:01;;;;;;;5.43;5.12;;;;;;;12.31;100.00;101946.34;4376066;32;20093;-74
2022/01/01 00:40:27;;;;;;;4.80;4.60;;;;;;;12.24;100.00;101921.16;4382306;32;20967;-72
2022/01/01 00:42:52;;;;;;;4.97;4.78;;;;;;;12.37;100.00;101932.94;4367542;32;20097;-74
2022/01/01 00:45:17;;;;;;;6.37;6.07;;;;;;;12.33;100.00;101936.59;4356121;32;20118;-75
2022/01/01 00:47:43;;;;;;;4.95;4.72;;;;;;;12.34;100.00;101930.41;4367291;32;20076;-72
2022/01/01 00:50:08;;;;;;;4.90;4.70;;;;;;;12.31;100.00;101926.13;4367443;32;20240;-73
2022/01/01 00:52:34;;;;;;;5.37;4.72;;;;;;;11.79;100.00;101851.84;4368805;32;20164;-74
2022/01/01 00:54:59;;;;;;;4.70;4.50;;;;;;;12.34;100.00;101948.84;4352930;32;20074;-74
2022/01/01 00:57:25;;;;;;;5.30;5.10;;;;;;;12.33;100.00;101950.62;4366220;32;20070;-73
2022/01/01 00:59:51;;;;;;;5.00;4.80;;;;;;;12.30;100.00;101952.50;4356042;32;20099;-73
2022/01/01 01:02:16;;;;;;;7.22;6.93;;;;;;;12.33;100.00;101955.03;4362807;32;20671;-74
2022/01/01 01:04:41;;;;;;;5.40;5.10;;;;;;;12.32;100.00;101953.31;4352662;32;20088;-76
2022/01/01 01:07:08;;;;;;;4.68;4.47;;;;;;;11.24;100.00;101775.06;4377513;32;20143;-75
2022/01/01 01:09:33;;;;;;;5.78;5.47;;;;;;;12.30;100.00;101958.63;4374207;32;20541;-75
2022/01/01 01:11:59;;;;;;;5.40;5.10;;;;;;;12.31;100.00;101951.59;4356153;32;20084;-75
2022/01/01 01:14:27;;;;;;;7.30;6.90;;;;;;;12.27;100.00;101950.84;4350971;32;20148;-76
2022/01/01 01:16:52;;;;;;;5.15;4.75;;;;;;;11.88;100.00;101893.56;4383173;32;20325;-73
2022/01/01 01:19:18;;;;;;;6.22;5.93;;;;;;;12.26;100.00;101956.19;4357400;32;20406;-75
2022/01/01 01:21:46;;;;;;;5.35;5.05;;;;;;;12.22;100.00;101955.44;4372591;32;21189;-74
2022/01/01 01:24:12;;;;;;;6.47;5.85;;;;;;;12.28;100.00;101963.09;4367344;32;20105;-74
2022/01/01 01:26:38;;;;;;;5.70;5.30;;;;;;;12.26;100.00;101957.03;4367502;32;20066;-75
2022/01/01 01:29:04;;;;;;;4.82;4.62;;;;;;;12.28;100.00;101960.44;4365631;32;20072;-76
2022/01/01 01:31:30;;;;;;;5.45;5.15;;;;;;;12.28;100.00;101965.72;4387557;32;20268;-74
2022/01/01 01:33:55;;;;;;;4.70;4.50;;;;;;;12.30;100.00;101958.63;4355481;32;20062;-74
2022/01/01 01:36:21;;;;;;;7.62;7.12;;;;;;;12.29;99.40;101956.91;4372822;32;20076;-75
2022/01/01 01:38:46;;;;;;;5.45;5.15;;;;;;;12.14;99.53;101939.09;4367596;32;20076;-75
2022/01/01 01:41:11;;;;;;;7.75;7.28;;;;;;;12.24;99.92;101953.59;4368335;32;20095;-77
2022/01/01 01:43:37;;;;;;;4.60;4.40;;;;;;;12.22;99.52;101950.16;4372547;32;20089;-73
2022/01/01 01:46:04;;;;;;;4.80;4.60;;;;;;;11.89;98.88;101883.94;4368117;32;20062;-75
2022/01/01 01:48:31;;;;;;;5.07;4.78;;;;;;;12.27;97.83;101947.38;4368838;32;20085;-73
2022/01/01 01:50:56;;;;;;;4.97;4.68;;;;;;;12.28;97.20;101949.06;4369910;32;20101;-72
2022/01/01 01:53:22;;;;;;;6.70;6.40;;;;;;;12.30;95.39;101955.13;4369257;32;20077;-73
2022/01/01 01:55:47;;;;;;;4.57;4.37;;;;;;;12.31;94.72;101959.50;4372945;32;20359;-74
2022/01/01 01:58:13;;;;;;;6.37;6.07;;;;;;;12.43;92.14;101966.91;4369618;32;20073;-73
2022/01/01 02:03:10;;;;;;;6.30;6.00;;;;;;;11.33;91.28;101803.66;4367244;32;20053;-75
2022/01/01 02:05:36;;;;;;;4.90;4.60;;;;;;;12.35;91.88;101972.47;4367365;32;20095;-74
2022/01/01 02:08:02;;;;;;;4.70;4.50;;;;;;;12.38;91.41;101967.06;4355472;32;20140;-75
2022/01/01 02:10:27;;;;;;;4.90;4.70;;;;;;;11.56;91.85;101845.66;4373892;32;20065;-74
2022/01/01 02:12:55;;;;;;;4.75;4.55;;;;;;;12.38;91.75;101977.59;4369879;32;20104;-73
2022/01/01 02:15:42;;;;;;;6.32;6.03;;;;;;;12.37;92.41;101982.94;4374093;32;20069;-75
2022/01/01 02:18:07;;;;;;;4.35;4.15;;;;;;;11.47;92.35;101818.91;4367206;32;20415;-74
2022/01/01 02:20:32;;;;;;;4.50;4.30;;;;;;;12.38;92.91;101976.75;4380993;32;20069;-74
2022/01/01 02:23:00;;;;;;;4.82;4.62;;;;;;;12.36;92.93;101979.44;4367558;32;20066;-74
2022/01/01 02:25:26;;;;;;;5.90;5.53;;;;;;;12.45;91.98;101962.44;4367258;32;20368;-73
2022/01/01 02:27:51;;;;;;;5.00;4.80;;;;;;;12.39;92.53;101965.31;4364775;32;20077;-74
2022/01/01 02:30:17;;;;;;;7.72;7.25;;;;;;;12.10;91.69;101919.06;4354205;32;20073;-75
2022/01/01 02:32:42;;;;;;;5.80;5.50;;;;;;;11.67;90.12;101841.81;4368007;32;20152;-74
2022/01/01 02:35:09;;;;;;;4.78;4.57;;;;;;;12.37;90.59;101962.75;4364373;32;20536;-75
2022/01/01 02:37:35;;;;;;;5.20;4.90;;;;;;;11.70;90.41;101857.44;4370718;32;20092;-74
2022/01/01 02:40:00;;;;;;;5.30;5.00;;;;;;;12.22;90.33;101949.31;4367427;32;20077;-74
2022/01/01 02:42:25;;;;;;;5.20;5.00;;;;;;;12.34;90.54;101964.63;4353923;32;20226;-75
2022/01/01 02:44:53;;;;;;;4.75;4.55;;;;;;;11.59;90.34;101855.22;4354362;32;20082;-74
2022/01/01 02:47:19;;;;;;;6.25;5.95;;;;;;;12.15;90.61;101953.97;4378461;32;20089;-75
2022/01/01 02:49:44;;;;;;;4.75;4.55;;;;;;;12.31;92.00;101980.56;4368115;32;20123;-73
2022/01/01 02:52:09;;;;;;;6.07;5.68;;;;;;;12.28;92.04;101992.03;4349849;32;20983;-73
2022/01/01 02:54:35;;;;;;;4.60;4.40;;;;;;;12.27;92.46;101978.97;4354982;32;20422;-73
2022/01/01 02:57:00;;;;;;;4.97;4.72;;;;;;;12.17;92.94;101967.94;4371042;32;20080;-75
2022/01/01 02:59:26;;;;;;;5.72;5.43;;;;;;;12.27;93.39;101987.72;4368304;32;20313;-74
2022/01/01 03:01:51;;;;;;;4.80;4.60;;;;;;;12.24;93.83;101979.91;4367034;32;20074;-73
2022/01/01 03:04:16;;;;;;;7.53;7.12;;;;;;;12.28;93.85;101985.94;4364178;32;20092;-74
2022/01/01 03:06:42;;;;;;;4.80;4.60;;;;;;;12.30;94.11;101987.56;4380082;32;20136;-74
2022/01/01 03:09:07;;;;;;;5.80;5.40;;;;;;;11.37;94.16;101839.41;4373293;32;20057;-74
2022/01/01 03:11:32;;;;;;;4.82;4.62;;;;;;;12.16;94.70;101964.41;4374384;32;20563;-76
2022/01/01 03:13:58;;;;;;;4.70;4.50;;;;;;;12.29;95.00;101980.59;4382913;32;20567;-73
2022/01/01 03:16:23;;;;;;;6.43;6.05;;;;;;;12.30;95.25;101981.47;4371740;32;20088;-75
2022/01/01 03:18:49;;;;;;;5.32;5.10;;;;;;;10.91;94.96;101757.88;4368578;32;20089;-74
2022/01/01 03:21:14;;;;;;;6.55;6.25;;;;;;;12.28;95.08;101978.03;4371240;32;20607;-73
2022/01/01 03:23:39;;;;;;;4.65;4.45;;;;;;;11.52;95.59;101861.63;4374877;32;20074;-74
2022/01/01 03:26:05;;;;;;;4.50;4.30;;;;;;;12.24;95.37;101985.19;4368903;32;20637;-73
2022/01/01 03:28:30;;;;;;;5.15;4.93;;;;;;;12.26;94.95;101980.72;4375084;32;20144;-73
2022/01/01 03:30:55;;;;;;;5.10;4.80;;;;;;;12.25;95.12;101989.53;4370549;32;20112;-72
2022/01/01 03:33:21;;;;;;;6.00;5.70;;;;;;;12.24;95.37;101987.81;4380125;32;20073;-74
2022/01/01 03:35:48;;;;;;;5.03;4.72;;;;;;;12.18;95.50;101969.63;4359210;32;20504;-75
2022/01/01 03:38:14;;;;;;;6.28;5.97;;;;;;;12.11;95.72;101960.28;4354257;32;20085;-75
2022/01/01 03:40:39;;;;;;;4.97;4.78;;;;;;;12.15;95.81;101969.75;4369040;32;20251;-73
2022/01/01 03:43:04;;;;;;;4.30;4.10;;;;;;;12.22;95.59;101971.22;4369981;32;20288;-75
2022/01/01 03:45:30;;;;;;;4.80;4.60;;;;;;;12.23;95.78;101970.31;4366166;32;20073;-73
2022/01/01 03:47:55;;;;;;;5.00;4.70;;;;;;;12.23;95.27;101975.59;4356582;32;21315;-74
2022/01/01 03:50:20;;;;;;;5.55;5.35;;;;;;;12.18;95.61;101967.84;4366703;32;21069;-75
2022/01/01 03:52:46;;;;;;;5.10;4.80;;;;;;;11.47;95.21;101860.94;4366238;32;20069;-74
2022/01/01 03:55:12;;;;;;;6.95;6.62;;;;;;;12.13;95.76;101967.19;4368457;32;20072;-74
2022/01/01 03:57:37;;;;;;;4.60;4.40;;;;;;;12.14;95.83;101968.87;4368439;32;20203;-73
2022/01/01 04:00:11;;;;;;;4.53;4.32;;;;;;;11.92;95.87;101918.84;4370648;32;20088;-73
2022/01/01 04:02:37;;;;;;;4.72;4.53;;;;;;;12.12;95.97;101954.06;4367451;32;20083;-73
2022/01/01 04:05:03;;;;;;;4.70;4.50;;;;;;;11.83;95.98;101910.44;4370348;32;20069;-75
2022/01/01 04:07:29;;;;;;;4.55;4.35;;;;;;;12.10;96.46;101948.00;4356245;32;20172;-73
2022/01/01 04:09:55;;;;;;;4.90;4.70;;;;;;;11.42;96.37;101837.44;4367856;32;20069;-73
2022/01/01 04:12:20;;;;;;;6.50;6.20;;;;;;;12.07;96.29;101941.09;4372921;32;20717;-75
2022/01/01 04:14:45;;;;;;;4.75;4.55;;;;;;;12.07;96.34;101945.53;4369349;32;20140;-74
2022/01/01 04:17:11;;;;;;;5.70;5.43;;;;;;;11.79;96.27;101896.56;4369223;32;20065;-74
2022/01/01 04:19:39;;;;;;;4.72;4.53;;;;;;;12.08;96.40;101952.47;4370017;32;20495;-72
2022/01/01 04:22:09;;;;;;;4.70;4.50;;;;;;;11.21;96.37;101807.59;4356973;32;20684;-73
2022/01/01 04:24:35;;;;;;;4.50;4.30;;;;;;;12.06;96.31;101951.69;4366798;32;20535;-74
2022/01/01 04:27:00;;;;;;;4.70;4.50;;;;;;;12.05;96.28;101969.25;4366418;32;20081;-74
2022/01/01 04:29:25;;;;;;;4.97;4.78;;;;;;;12.04;96.07;101959.63;4380470;32;20489;-75
2022/01/01 04:31:51;;;;;;;5.20;4.90;;;;;;;12.02;96.03;101952.72;4361573;32;20144;-73
2022/01/01 04:34:16;;;;;;;5.50;5.30;;;;;;;11.91;95.95;101942.63;4366394;32;20187;-75
2022/01/01 04:36:49;;;;;;;4.53;4.32;;;;;;;11.60;96.03;101885.00;4381371;32;20079;-74
2022/01/01 04:39:14;;;;;;;;;;;;;;;12.00;96.19;101957.19;4354267;32;20492;-75
2022/01/01 04:41:41;;;;;;;4.62;4.40;;;;;;;12.01;95.81;101957.12;4397702;32;19992;-75
2022/01/01 04:44:06;;;;;;;4.45;4.25;;;;;;;11.71;96.26;101906.50;4373962;32;20172;-74
2022/01/01 04:46:32;;;;;;;4.68;4.47;;;;;;;11.97;96.01;101956.38;4357218;32;20136;-74
2022/01/01 04:48:57;;;;;;;4.37;4.18;;;;;;;11.96;95.71;101959.06;4368498;32;20098;-77
2022/01/01 04:51:22;;;;;;;5.93;5.62;;;;;;;11.95;95.83;101955.59;4353668;32;20073;-76
2022/01/01 04:53:49;;;;;;;4.50;4.30;;;;;;;11.95;95.98;101957.38;4384977;32;20147;-74
2022/01/01 04:56:18;;;;;;;5.97;5.68;;;;;;;11.71;95.87;101928.41;4368232;32;20077;-74
2022/01/01 04:58:44;;;;;;;4.70;4.47;;;;;;;11.93;96.00;101959.19;4368033;32;20543;-75
2022/01/01 05:01:09;;;;;;;5.00;4.80;;;;;;;11.93;95.81;101965.31;4356802;32;20991;-75
2022/01/01 05:03:35;;;;;;;4.40;4.20;;;;;;;11.62;95.94;101909.47;4354321;32;20065;-74
2022/01/01 05:06:00;;;;;;;4.70;4.50;;;;;;;11.93;95.92;101956.56;4385296;32;20069;-75
2022/01/01 05:08:26;;;;;;;5.60;5.30;;;;;;;11.92;95.79;101963.56;4361224;32;20227;-74
2022/01/01 05:10:51;;;;;;;5.10;4.90;;;;;;;11.76;95.91;101965.87;4372478;32;20088;-75
2022/01/01 05:13:19;;;;;;;6.55;6.25;;;;;;;11.92;95.72;101978.50;4358798;32;20093;-73
2022/01/01 05:15:44;;;;;;;4.32;4.12;;;;;;;11.91;95.90;101974.19;4378595;32;20607;-75
2022/01/01 05:18:10;;;;;;;5.25;5.03;;;;;;;11.92;94.94;101976.72;4359480;32;20077;-75
2022/01/01 05:20:35;;;;;;;5.10;4.80;;;;;;;11.93;94.84;101972.34;4368307;32;20681;-73
2022/01/01 05:23:00;;;;;;;4.70;4.50;;;;;;;11.93;94.64;101964.47;4368670;32;20069;-75
2022/01/01 05:25:26;;;;;;;5.45;5.25;;;;;;;11.93;94.14;101981.09;4365844;32;20452;-73
2022/01/01 05:27:51;;;;;;;4.97;4.70;;;;;;;11.92;93.98;101970.62;4358779;32;20081;-72
2022/01/01 05:30:16;;;;;;;6.10;5.80;;;;;;;11.94;93.77;101988.06;4351037;32;20205;-73
2022/01/01 05:32:42;;;;;;;4.70;4.47;;;;;;;11.97;93.42;101990.59;4374570;32;20080;-75
2022/01/01 05:35:07;;;;;;;4.80;4.60;;;;;;;11.95;93.24;101984.53;4356731;32;20061;-75
2022/01/01 05:37:33;;;;;;;4.57;4.37;;;;;;;11.96;93.02;101972.22;4370067;32;20751;-74
2022/01/01 05:39:58;;;;;;;4.40;4.20;;;;;;;11.59;92.90;101910.44;4375982;32;20065;-75
2022/01/01 05:42:23;;;;;;;5.72;5.50;;;;;;;11.98;92.95;101975.66;4367864;32;20074;-76
2022/01/01 05:44:49;;;;;;;4.80;4.60;;;;;;;11.97;92.95;101974.78;4372072;32;20092;-75
2022/01/01 05:47:14;;;;;;;5.20;5.00;;;;;;;11.86;92.17;101955.87;4359625;32;20595;-74
2022/01/01 05:49:39;;;;;;;4.32;4.12;;;;;;;12.00;92.14;101986.13;4367717;32;20073;-74
2022/01/01 05:52:05;;;;;;;4.55;4.35;;;;;;;12.01;91.87;101977.28;4371708;32;20084;-73
2022/01/01 05:54:30;;;;;;;4.30;4.10;;;;;;;12.00;91.20;101975.59;4363438;32;20527;-73
2022/01/01 05:56:56;;;;;;;4.40;4.20;;;;;;;12.00;91.18;101975.59;4371969;32;20093;-73
2022/01/01 05:59:21;;;;;;;5.45;5.25;;;;;;;11.92;91.31;101968.00;4366359;32;20517;-76
2022/01/01 06:01:46;;;;;;;4.60;4.40;;;;;;;11.77;91.08;101943.94;4366231;32;20087;-74
2022/01/01 06:04:12;;;;;;;5.03;4.82;;;;;;;11.92;90.91;101966.19;4367656;32;20076;-74
2022/01/01 06:06:37;;;;;;;4.43;4.22;;;;;;;12.00;90.88;101973.81;4367304;32;20923;-73
2022/01/01 06:09:02;;;;;;;4.40;4.20;;;;;;;12.00;90.74;101968.56;4375243;32;20058;-73
2022/01/01 06:11:28;;;;;;;4.68;4.47;;;;;;;12.03;90.41;101986.00;4369271;32;20073;-73
2022/01/01 06:13:53;;;;;;;4.40;4.20;;;;;;;12.01;89.97;101970.28;4372796;32;20073;-75
2022/01/01 06:16:19;;;;;;;6.05;5.75;;;;;;;12.04;90.03;101977.19;4368399;32;20136;-75
2022/01/01 06:18:44;;;;;;;4.80;4.60;;;;;;;12.04;89.70;101977.19;4367565;32;20567;-73
2022/01/01 06:21:09;;;;;;;5.55;5.30;;;;;;;12.03;89.37;101984.25;4375848;32;20078;-74
2022/01/01 06:23:39;;;;;;;4.37;4.18;;;;;;;11.74;89.46;101932.66;4368759;32;20075;-74
2022/01/01 06:26:05;;;;;;;4.60;4.30;;;;;;;12.03;89.63;101978.97;4373030;32;20847;-73
2022/01/01 06:28:30;;;;;;;4.10;3.90;;;;;;;11.94;89.44;101963.53;4370801;32;20240;-73
2022/01/01 06:30:56;;;;;;;4.47;4.28;;;;;;;12.02;88.96;101987.78;4375593;32;20077;-72
2022/01/01 06:33:21;;;;;;;4.80;4.60;;;;;;;12.07;88.92;101992.87;4375950;32;20598;-73
2022/01/01 06:35:47;;;;;;;4.45;4.25;;;;;;;12.09;88.98;101993.69;4373839;32;20074;-73
2022/01/01 06:38:12;;;;;;;6.05;5.75;;;;;;;12.07;88.42;102003.41;4374994;32;20108;-76
2022/01/01 06:40:41;;;;;;;4.70;4.50;;;;;;;11.49;88.51;101911.69;4368366;32;20081;-75
2022/01/01 06:43:11;;;;;;;4.47;4.28;;;;;;;12.06;88.35;102006.94;4373407;32;20077;-74
2022/01/01 06:45:36;;;;;;;4.87;4.68;;;;;;;12.07;88.36;101999.00;4371403;32;20077;-74
2022/01/01 06:48:02;;;;;;;4.60;4.40;;;;;;;11.87;87.78;101970.75;4356943;32;20227;-74
2022/01/01 06:50:28;;;;;;;4.43;4.22;;;;;;;12.05;87.92;102002.59;4374006;32;20088;-74
2022/01/01 06:52:53;;;;;;;4.60;4.30;;;;;;;11.92;87.47;101984.62;4363054;32;20456;-74
2022/01/01 06:55:18;;;;;;;5.97;5.68;;;;;;;12.08;87.37;102008.59;4382276;32;20061;-72
2022/01/01 06:57:44;;;;;;;4.72;4.53;;;;;;;12.00;87.13;101991.38;4360337;32;20089;-73
2022/01/01 07:00:10;;;;;;;4.40;4.20;;;;;;;12.11;87.26;101994.47;4368449;32;20757;-75
2022/01/01 07:02:41;;;;;;;4.40;4.20;;;;;;;11.86;87.31;101962.91;4368857;32;20893;-73
2022/01/01 07:05:07;;;;;;;4.50;4.30;;;;;;;11.83;87.10;101963.91;4372658;32;20659;-74
2022/01/01 07:07:32;;;;;;;4.40;4.20;;;;;;;12.08;87.28;101999.84;4382562;32;20116;-75
2022/01/01 07:09:58;;;;;;;4.70;4.50;;;;;;;12.06;86.64;101989.37;4371534;32;20066;-73
2022/01/01 07:12:23;;;;;;;5.80;5.55;;;;;;;12.01;86.93;101987.81;4365692;32;20066;-75
2022/01/01 07:14:48;;;;;;;4.28;4.07;;;;;;;12.06;86.72;102001.69;4354759;32;20136;-75
2022/01/01 07:17:14;;;;;;;5.18;4.97;;;;;;;11.95;86.51;101987.16;4372284;32;20066;-75
2022/01/01 07:19:39;;;;;;;4.30;4.10;;;;;;;11.80;86.28;101968.41;4378740;32;20164;-74
2022/01/01 07:22:04;;;;;;;4.20;4.00;;;;;;;12.02;86.60;102002.72;4369444;32;20423;-74
2022/01/01 07:24:30;;;;;;;4.40;4.20;;;;;;;11.70;86.54;101946.84;4365911;32;20077;-74
2022/01/01 07:26:55;;;;;;;4.50;4.30;;;;;;;12.03;86.86;102007.03;4354599;32;20091;-74
2022/01/01 07:29:21;;;;;;;5.40;5.20;;;;;;;11.14;86.91;101874.37;4373938;32;20247;-76
2022/01/01 07:31:46;;;;;;;6.12;4.35;;;;;;;12.00;87.26;102023.81;4377578;32;20069;-73
2022/01/01 07:34:12;;;;;;;5.37;5.18;;;;;;;11.98;87.56;102020.37;4365027;32;20135;-75
2022/01/01 07:36:37;;;;;;;4.22;4.03;;;;;;;11.98;87.85;102023.00;4380859;32;20083;-74
2022/01/01 07:39:03;;;;;;;4.47;4.28;;;;;;;11.98;87.80;102028.25;4366774;32;20544;-73
2022/01/01 07:41:28;;;;;;;4.60;4.40;;;;;;;11.94;86.97;102024.88;4374218;32;20106;-75
2022/01/01 07:43:53;;;;;;;4.80;4.60;;;;;;;11.61;87.55;101973.50;4367555;32;20662;-77
2022/01/01 07:46:19;;;;;;;5.97;5.68;;;;;;;11.94;87.97;102035.41;4366858;32;20086;-76
2022/01/01 07:48:44;;;;;;;4.40;4.20;;;;;;;11.06;87.50;101881.69;4367097;32;20066;-76
2022/01/01 07:51:09;;;;;;;4.93;4.72;;;;;;;11.95;87.26;102045.03;4367128;32;20634;-75
2022/01/01 07:53:35;;;;;;;5.12;4.93;;;;;;;11.69;87.20;101980.19;4362356;32;20080;-75
2022/01/01 07:56:00;;;;;;;4.60;4.40;;;;;;;12.00;87.27;102047.47;4370619;32;20078;-76
2022/01/01 07:58:26;;;;;;;5.12;4.93;;;;;;;12.00;87.12;102022.97;4366250;32;20260;-76
2022/01/01 08:00:51;;;;;;;4.55;4.35;;;;;;;12.04;86.56;102035.09;4368647;32;20077;-76
2022/01/01 08:03:16;;;;;;;5.82;5.57;;;;;;;12.05;86.65;102026.28;4367866;32;20065;-76
2022/01/01 08:05:42;;;;;;;4.60;4.40;;;;;;;12.07;86.66;102034.97;4372032;32;20069;-76
2022/01/01 08:08:07;;;;;;;4.32;4.12;;;;;;;12.08;86.43;102031.41;4363935;32;20070;-75
2022/01/01 08:10:34;;;;;;;4.20;4.00;;;;;;;11.97;86.82;102005.53;4365608;32;20076;-76
2022/01/01 08:13:00;;;;;;;4.65;4.45;;;;;;;11.93;85.98;102012.66;4370716;32;20079;-75
2022/01/01 08:15:25;;;;;;;5.22;5.03;;;;;;;12.14;86.49;102041.72;4367965;32;20112;-75
2022/01/01 08:17:50;;;;;;;4.30;4.10;;;;;;;12.09;85.92;102038.41;4379779;32;20057;-76
2022/01/01 08:20:16;;;;;;;5.70;5.47;;;;;;;12.01;85.52;102011.50;4361270;32;20092;-76
2022/01/01 08:22:41;;;;;;;5.18;4.87;;;;;;;12.16;85.40;102030.22;4362927;32;20658;-75
2022/01/01 08:25:07;;;;;;;5.12;4.82;;;;;;;11.85;84.91;101972.59;4364836;32;20580;-75
2022/01/01 08:27:33;;;;;;;4.55;4.35;;;;;;;12.01;84.31;101996.59;4377493;32;20066;-74
2022/01/01 08:29:58;;;;;;;4.78;4.57;;;;;;;12.33;83.35;102042.75;4367199;32;20073;-77
2022/01/01 08:32:23;;;;;;;6.25;5.95;;;;;;;11.60;83.92;101919.19;4351261;32;20651;-75
2022/01/01 08:34:50;;;;;;;5.22;4.93;;;;;;;12.05;83.89;101971.03;4364153;32;20097;-75
2022/01/01 08:37:16;;;;;;;5.68;5.45;;;;;;;12.48;83.10;102037.81;4365544;32;20084;-76
2022/01/01 08:39:41;;;;;;;4.55;4.35;;;;;;;12.56;82.46;102035.72;4376333;32;20073;-77
2022/01/01 08:42:09;;;;;;;4.50;4.30;;;;;;;11.84;82.05;101928.78;4368863;32;20085;-77
2022/01/01 08:44:34;;;;;;;4.62;4.43;;;;;;;12.62;81.85;102037.28;4364269;32;20176;-75
2022/01/01 08:47:00;;;;;;;4.80;4.60;;;;;;;12.67;82.37;102051.97;4362569;32;20069;-75
2022/01/01 08:49:25;;;;;;;5.25;5.05;;;;;;;12.70;82.11;102049.22;4364494;32;20188;-76
2022/01/01 08:51:51;;;;;;;4.80;4.60;;;;;;;12.76;81.38;102045.47;4353167;32;20382;-76
2022/01/01 08:54:16;;;;;;;6.15;5.85;;;;;;;12.75;81.27;102047.25;4377132;32;20093;-76
2022/01/01 08:56:42;;;;;;;4.60;4.40;;;;;;;12.65;81.35;102024.84;4356676;32;20615;-77
2022/01/01 08:59:07;;;;;;;4.43;4.22;;;;;;;12.73;80.70;102035.09;4362447;32;20074;-76
2022/01/01 09:01:32;;;;;;;4.78;4.50;;;;;;;11.89;80.44;101892.69;4351352;32;20623;-76
2022/01/01 09:03:58;;;;;;;4.62;4.43;;;;;;;12.69;80.80;102023.81;4364670;32;20453;-76
2022/01/01 09:06:23;;;;;;;5.72;5.50;;;;;;;12.73;80.55;102028.03;4375998;32;20088;-75
2022/01/01 09:08:49;;;;;;;4.70;4.50;;;;;;;12.32;80.27;101951.53;4382051;32;20068;-75
2022/01/01 09:11:14;;;;;;;6.00;5.70;;;;;;;12.97;80.39;102033.25;4365868;32;20667;-75
2022/01/01 09:13:42;;;;;;;5.00;4.80;;;;;;;13.07;79.46;102041.59;4371986;32;20563;-76
2022/01/01 09:16:29;;;;;;;4.50;4.30;;;;;;;13.00;79.30;102012.00;4369250;32;20089;-75
2022/01/01 09:18:55;;;;;;;4.85;4.65;;;;;;;12.90;79.44;101987.81;4370453;32;20583;-76
2022/01/01 09:21:21;;;;;;;6.10;5.80;;;;;;;12.90;78.18;101993.09;4364986;32;20136;-75
2022/01/01 09:23:47;;;;;;;4.62;4.43;;;;;;;13.34;78.32;102042.28;4354149;32;20469;-77
2022/01/01 09:26:12;;;;;;;5.53;5.32;;;;;;;13.38;77.85;102040.37;4362157;32;20109;-76
2022/01/01 09:28:38;;;;;;;4.70;4.50;;;;;;;13.40;79.01;102035.88;4369794;32;20517;-74
2022/01/01 09:31:03;;;;;;;4.47;4.28;;;;;;;13.21;77.67;102025.22;4369573;32;20366;-75
2022/01/01 09:33:29;;;;;;;4.80;4.60;;;;;;;13.34;77.97;102037.00;4378271;32;20152;-75
2022/01/01 09:35:58;;;;;;;4.80;4.60;;;;;;;13.32;77.64;102030.94;4367052;32;20528;-75
2022/01/01 09:38:23;;;;;;;5.97;5.68;;;;;;;13.24;78.28;102011.91;4347293;32;20193;-77
2022/01/01 09:40:52;;;;;;;4.62;4.43;;;;;;;13.37;77.90;102026.34;4365875;32;20098;-77
2022/01/01 09:43:17;;;;;;;5.57;5.37;;;;;;;13.32;77.86;102008.06;4363770;32;20076;-77
2022/01/01 09:45:42;;;;;;;4.53;4.32;;;;;;;13.34;77.78;101995.66;4363577;32;20567;-77
2022/01/01 09:48:08;;;;;;;4.78;4.57;;;;;;;13.73;77.77;102059.94;4366218;32;20080;-76
2022/01/01 09:50:33;;;;;;;4.97;4.50;;;;;;;13.86;77.47;102047.94;4349002;32;20167;-76
2022/01/01 09:52:59;;;;;;;4.90;4.68;;;;;;;13.91;76.44;102048.59;4365937;32;20073;-75
2022/01/01 09:55:24;;;;;;;5.95;5.68;;;;;;;13.82;76.28;102041.06;4373795;32;20430;-76
2022/01/01 09:57:50;;;;;;;4.70;4.50;;;;;;;13.66;75.78;102006.59;4352431;32;20101;-74
2022/01/01 10:00:15;;;;;;;5.55;5.35;;;;;;;13.72;76.13;102008.09;4375660;32;20070;-76
2022/01/01 10:02:40;;;;;;;5.25;4.97;;;;;;;13.98;75.47;102043.03;4357756;32;20189;-76
2022/01/01 10:05:09;;;;;;;4.90;4.60;;;;;;;13.27;74.87;101935.31;4375943;32;20184;-75
2022/01/01 10:07:34;;;;;;;4.68;4.47;;;;;;;13.89;74.33;102031.09;4377069;32;20555;-75
2022/01/01 10:10:18;;;;;;;4.70;4.50;;;;;;;14.09;74.64;102056.59;4370319;32;20080;-75
2022/01/01 10:12:43;;;;;;;4.60;4.40;;;;;;;13.76;74.45;102022.87;4358018;32;20093;-75
2022/01/01 10:15:08;;;;;;;4.82;4.62;;;;;;;14.07;75.00;102039.97;4353162;32;20344;-75
2022/01/01 10:17:34;;;;;;;5.20;4.90;;;;;;;14.03;74.52;102034.00;4353787;32;20139;-73
2022/01/01 10:19:59;;;;;;;4.95;4.60;;;;;;;14.20;75.34;102040.28;4374961;32;20081;-74
2022/01/01 10:22:25;;;;;;;6.03;5.72;;;;;;;14.13;74.32;102029.13;4368776;32;20419;-74
2022/01/01 10:27:56;;;;;;;4.70;4.50;;;;;;;14.34;73.75;102036.06;4371061;32;20096;-73
2022/01/01 10:30:34;;;;;;;7.60;6.45;;;;;;;14.32;73.42;102024.72;4352848;32;20097;-74
2022/01/01 10:33:07;;;;;;;5.00;4.70;;;;;;;14.44;73.01;102040.94;4372232;32;20077;-74
2022/01/01 10:35:34;;;;;;;5.20;5.00;;;;;;;14.06;73.62;101988.12;4349242;32;20077;-75
2022/01/01 10:38:02;;;;;;;4.80;4.60;;;;;;;13.89;73.36;101949.28;4372510;32;20708;-77
2022/01/01 10:40:27;;;;;;;5.18;4.97;;;;;;;13.52;73.71;101899.06;4353524;32;21166;-76
2022/01/01 10:42:53;;;;;;;4.80;4.60;;;;;;;13.38;73.22;101863.69;4369692;32;20168;-77
2022/01/01 10:45:29;;;;;;;5.62;5.43;;;;;;;14.32;74.12;102019.44;4354592;32;20085;-74
2022/01/01 10:48:28;;;;;;;5.40;5.20;;;;;;;13.64;74.10;101899.44;4351892;32;20081;-77
2022/01/01 10:50:54;;;;;;;6.30;4.78;;;;;;;14.34;73.87;102012.28;4377025;32;20682;-76
2022/01/01 10:53:21;;;;;;;6.05;5.75;;;;;;;14.37;74.38;102011.28;4356473;32;20088;-76
2022/01/01 10:55:49;;;;;;;5.40;5.10;;;;;;;14.41;74.33;101996.16;4376396;32;20070;-74
2022/01/01 10:58:29;;;;;;;6.12;5.82;;;;;;;14.54;73.74;101994.66;4350584;32;20429;-75
2022/01/01 11:00:59;;;;;;;4.90;4.70;;;;;;;14.62;73.70;101986.37;4368352;32;20085;-74
2022/01/01 11:03:24;;;;;;;6.00;5.70;;;;;;;14.62;73.89;101986.37;4365132;32;20082;-75
2022/01/01 11:05:51;;;;;;;4.60;4.40;;;;;;;13.48;73.80;101786.72;4372834;32;20164;-76
2022/01/01 11:08:16;;;;;;;6.32;6.03;;;;;;;14.02;72.91;101902.94;4353264;32;20629;-77
2022/01/01 11:10:42;;;;;;;5.00;4.80;;;;;;;14.53;74.14;101985.87;4375351;32;20077;-77
2022/01/01 11:13:07;;;;;;;5.00;4.80;;;;;;;14.26;73.61;101924.66;4365576;32;20324;-76
2022/01/01 11:15:33;;;;;;;5.57;5.28;;;;;;;14.46;73.40;101979.16;4372259;32;20124;-75
2022/01/01 11:17:58;;;;;;;4.85;4.65;;;;;;;14.69;73.67;101978.09;4370869;32;20088;-76
2022/01/01 11:20:25;;;;;;;6.35;6.05;;;;;;;14.47;73.01;101932.47;4370052;32;20499;-75
2022/01/01 11:22:51;;;;;;;5.10;4.90;;;;;;;14.86;72.96;101968.47;4355265;32;20072;-75
2022/01/01 11:25:17;;;;;;;5.97;5.68;;;;;;;14.63;72.21;101917.59;4359819;32;20081;-76